createdAt,value
2022-09-12T00:00:46.236Z,100067.53
2022-09-12T00:03:13.448Z,100056.72
2022-09-12T00:05:47.665Z,100053.72
2022-09-12T00:08:15.274Z,100052.97
2022-09-12T00:10:44.270Z,100059.41
2022-09-12T00:13:11.880Z,100048.72
2022-09-12T00:15:43.517Z,100053.25
2022-09-12T00:18:16.633Z,100058.69
2022-09-12T00:20:45.676Z,100058.44
2022-09-12T00:23:13.870Z,100050.72
2022-09-12T00:25:46.415Z,100062.16
2022-09-12T00:28:15.376Z,100061.63
2022-09-12T00:30:43.229Z,100073.66
2022-09-12T00:33:11.059Z,100077.78
2022-09-12T00:35:53.157Z,100085.47
2022-09-12T00:38:21.119Z,100077.50
2022-09-12T00:40:48.614Z,100084.88
2022-09-12T00:43:35.724Z,100081.84
2022-09-12T00:46:07.561Z,100093.47
2022-09-12T00:48:42.703Z,100091.97
2022-09-12T00:51:10.097Z,100097.81
2022-09-12T00:53:38.631Z,100118.91
2022-09-12T00:56:06.159Z,100135.41
2022-09-12T00:58:40.562Z,100140.81
2022-09-12T01:01:07.536Z,100137.88
2022-09-12T01:03:35.026Z,100139.41
2022-09-12T01:06:09.639Z,100133.38
2022-09-12T01:08:37.597Z,100135.75
2022-09-12T01:11:05.886Z,100136.63
2022-09-12T01:13:35.249Z,100128.31
2022-09-12T01:16:06.542Z,100127.19
2022-09-12T01:18:55.765Z,100127.22
2022-09-12T01:21:48.766Z,100119.03
2022-09-12T01:24:33.616Z,100122.78
2022-09-12T01:27:27.035Z,100119.09
2022-09-12T01:30:26.237Z,100114.56
2022-09-12T01:32:55.706Z,100115.50
2022-09-12T01:35:52.026Z,100115.34
2022-09-12T01:38:36.441Z,100113.53
2022-09-12T01:41:12.399Z,100116.13
2022-09-12T01:43:45.867Z,100127.09
2022-09-12T01:46:17.859Z,100128.13
2022-09-12T01:48:47.310Z,100115.59
2022-09-12T01:51:29.986Z,100107.22
2022-09-12T01:54:07.065Z,100115.16
2022-09-12T01:56:39.104Z,100104.72
2022-09-12T01:59:15.411Z,100108.28
2022-09-12T02:01:55.170Z,100107.88
2022-09-12T02:04:33.507Z,100099.00
2022-09-12T02:07:24.009Z,100089.56
2022-09-12T02:10:07.817Z,100100.44
2022-09-12T02:12:41.624Z,100100.72
2022-09-12T02:15:10.517Z,100102.88
2022-09-12T02:17:41.270Z,100104.19
2022-09-12T02:20:25.961Z,100105.81
2022-09-12T02:23:08.385Z,100101.03
2022-09-12T02:25:40.143Z,100097.59
2022-09-12T02:28:29.646Z,100101.00
2022-09-12T02:31:14.667Z,100108.00
2022-09-12T02:33:50.228Z,100107.63
2022-09-12T02:36:24.067Z,100102.72
2022-09-12T02:38:51.462Z,100106.66
2022-09-12T02:41:20.833Z,100096.56
2022-09-12T02:43:50.605Z,100094.47
2022-09-12T02:46:33.835Z,100098.72
2022-09-12T02:49:00.974Z,100095.34
2022-09-12T02:51:28.053Z,100112.69
2022-09-12T02:53:55.470Z,100114.75
2022-09-12T02:56:27.562Z,100125.69
2022-09-12T02:59:01.664Z,100115.16
2022-09-12T03:01:46.825Z,100116.13
2022-09-12T03:04:28.695Z,100111.38
2022-09-12T03:07:15.963Z,100107.88
2022-09-12T03:09:49.395Z,100102.78
2022-09-12T03:12:40.510Z,100112.69
2022-09-12T03:15:21.983Z,100115.38
2022-09-12T03:18:27.968Z,100109.94
2022-09-12T03:21:02.932Z,100106.75
2022-09-12T03:24:04.481Z,100102.31
2022-09-12T03:26:54.988Z,100092.16
2022-09-12T03:29:24.462Z,100080.13
2022-09-12T03:31:57.079Z,100077.69
2022-09-12T03:34:26.625Z,100078.22
2022-09-12T03:36:57.570Z,100074.53
2022-09-12T03:39:26.552Z,100079.78
2022-09-12T03:41:54.871Z,100084.56
2022-09-12T03:44:22.211Z,100076.09
2022-09-12T03:46:49.207Z,100066.47
2022-09-12T03:49:16.678Z,100058.81
2022-09-12T03:51:43.859Z,100054.94
2022-09-12T03:54:11.031Z,100054.13
2022-09-12T03:56:37.918Z,100051.75
2022-09-12T03:59:06.917Z,100067.72
2022-09-12T04:01:33.919Z,100069.66
2022-09-12T04:04:00.902Z,100080.47
2022-09-12T04:06:27.778Z,100078.50
2022-09-12T04:08:55.184Z,100086.56
2022-09-12T04:11:23.083Z,100095.94
2022-09-12T04:13:50.399Z,100091.03
2022-09-12T04:16:18.901Z,100094.22
2022-09-12T04:18:46.898Z,100097.16
2022-09-12T04:21:17.069Z,100091.75
2022-09-12T04:23:44.149Z,100090.16
2022-09-12T04:26:11.889Z,100095.41
2022-09-12T04:28:38.910Z,100100.72
2022-09-12T04:31:09.126Z,100101.75
2022-09-12T04:33:36.482Z,100100.97
2022-09-12T04:36:12.166Z,100107.22
2022-09-12T04:38:39.171Z,100115.31
2022-09-12T04:41:17.527Z,100122.78
2022-09-12T04:43:48.456Z,100127.25
2022-09-12T04:46:19.858Z,100121.06
2022-09-12T04:48:47.998Z,100102.31
2022-09-12T04:51:18.048Z,100088.56
2022-09-12T04:53:49.684Z,100096.00
2022-09-12T04:56:16.748Z,100115.91
2022-09-12T04:58:43.965Z,100130.75
2022-09-12T05:01:13.851Z,100123.69
2022-09-12T05:03:43.588Z,100115.50
2022-09-12T05:06:13.963Z,100117.50
2022-09-12T05:08:41.424Z,100128.25
2022-09-12T05:11:12.868Z,100133.44
2022-09-12T05:13:40.251Z,100129.44
2022-09-12T05:16:10.382Z,100132.91
2022-09-12T05:18:37.331Z,100119.44
2022-09-12T05:21:07.307Z,100116.25
2022-09-12T05:23:34.543Z,100113.41
2022-09-12T05:26:02.649Z,100110.72
2022-09-12T05:28:35.471Z,100107.63
2022-09-12T05:31:12.007Z,100112.41
2022-09-12T05:33:41.378Z,100119.78
2022-09-12T05:36:15.156Z,100108.97
2022-09-12T05:38:42.076Z,100117.13
2022-09-12T05:41:24.712Z,100117.78
2022-09-12T05:43:56.835Z,100118.13
2022-09-12T05:46:29.165Z,100126.50
2022-09-12T05:48:58.458Z,100121.59
2022-09-12T05:51:28.243Z,100125.88
2022-09-12T05:54:00.361Z,100125.53
2022-09-12T05:56:29.229Z,100135.72
2022-09-12T05:58:59.349Z,100119.50
2022-09-12T06:01:27.442Z,100121.00
2022-09-12T06:03:56.248Z,100112.44
2022-09-12T06:06:24.936Z,100119.81
2022-09-12T06:08:54.184Z,100112.66
2022-09-12T06:11:23.805Z,100119.31
2022-09-12T06:13:51.282Z,100107.41
2022-09-12T06:16:21.095Z,100114.69
2022-09-12T06:18:49.822Z,100116.28
2022-09-12T06:21:16.856Z,100113.78
2022-09-12T06:23:46.313Z,100112.75
2022-09-12T06:26:14.007Z,100106.59
2022-09-12T06:28:42.516Z,100111.38
2022-09-12T06:31:12.429Z,100119.53
2022-09-12T06:33:41.869Z,100114.09
2022-09-12T06:36:12.728Z,100104.41
2022-09-12T06:38:40.354Z,100105.22
2022-09-12T06:41:11.514Z,100109.13
2022-09-12T06:43:40.074Z,100109.28
2022-09-12T06:46:07.733Z,100115.13
2022-09-12T06:48:39.623Z,100101.91
2022-09-12T06:51:13.976Z,100109.22
2022-09-12T06:53:41.682Z,100117.88
2022-09-12T06:56:22.827Z,100109.28
2022-09-12T06:58:51.433Z,100106.88
2022-09-12T07:01:31.197Z,100109.91
2022-09-12T07:04:00.516Z,100110.25
2022-09-12T07:06:32.164Z,100100.06
2022-09-12T07:09:00.262Z,100109.06
2022-09-12T07:11:31.919Z,100109.53
2022-09-12T07:14:00.978Z,100109.59
2022-09-12T07:16:28.624Z,100105.38
2022-09-12T07:18:58.655Z,100106.22
2022-09-12T07:21:26.032Z,100103.53
2022-09-12T07:23:55.342Z,100096.63
2022-09-12T07:26:22.427Z,100103.50
2022-09-12T07:28:54.634Z,100095.94
2022-09-12T07:31:23.946Z,100105.25
2022-09-12T07:33:54.650Z,100097.91
2022-09-12T07:36:25.411Z,100103.06
2022-09-12T07:38:58.603Z,100114.81
2022-09-12T07:41:31.246Z,100113.72
2022-09-12T07:44:00.155Z,100099.34
2022-09-12T07:46:29.679Z,100110.72
2022-09-12T07:48:58.322Z,100102.97
2022-09-12T07:51:26.926Z,100097.94
2022-09-12T07:53:54.407Z,100098.56
2022-09-12T07:56:29.379Z,100105.56
2022-09-12T07:58:57.636Z,100097.38
2022-09-12T08:01:24.929Z,100102.50
2022-09-12T08:03:57.279Z,100101.38
2022-09-12T08:06:25.889Z,100110.72
2022-09-12T08:08:55.414Z,100094.00
2022-09-12T08:11:23.401Z,100096.56
2022-09-12T08:13:55.439Z,100090.78
2022-09-12T08:16:25.493Z,100094.72
2022-09-12T08:18:52.499Z,100099.47
2022-09-12T08:21:24.813Z,100093.22
2022-09-12T08:23:54.301Z,100096.16
2022-09-12T08:26:21.495Z,100086.69
2022-09-12T08:28:49.234Z,100086.25
2022-09-12T08:31:18.466Z,100087.50
2022-09-12T08:33:45.653Z,100081.78
2022-09-12T08:36:17.382Z,100087.81
2022-09-12T08:38:46.511Z,100081.41
2022-09-12T08:41:28.057Z,100080.16
2022-09-12T08:44:17.381Z,100073.72
2022-09-12T08:47:10.287Z,100075.34
2022-09-12T08:49:56.655Z,100069.31
2022-09-12T08:52:39.087Z,100075.34
2022-09-12T08:55:13.538Z,100067.94
2022-09-12T08:57:40.504Z,100075.81
2022-09-12T09:00:12.880Z,100075.78
2022-09-12T09:03:00.278Z,100068.50
2022-09-12T09:05:52.783Z,100057.75
2022-09-12T09:08:59.088Z,100055.34
2022-09-12T09:11:28.900Z,100060.09
2022-09-12T09:14:35.274Z,100046.59
2022-09-12T09:17:03.393Z,100051.13
2022-09-12T09:19:40.790Z,100048.41
2022-09-12T09:22:17.873Z,100040.50
2022-09-12T09:24:50.774Z,100035.34
2022-09-12T09:27:41.035Z,100035.22
2022-09-12T09:30:15.848Z,100035.25
2022-09-12T09:32:46.189Z,100028.97
2022-09-12T09:35:15.925Z,100030.22
2022-09-12T09:37:54.547Z,100017.19
2022-09-12T09:40:30.328Z,100023.22
2022-09-12T09:43:02.358Z,100022.16
2022-09-12T09:45:29.912Z,100020.81
2022-09-12T09:48:13.836Z,100029.41
2022-09-12T09:50:48.391Z,100022.59
2022-09-12T09:53:46.286Z,100014.94
2022-09-12T09:56:35.779Z,100014.31
2022-09-12T09:59:33.826Z,100011.59
2022-09-12T10:02:13.247Z,100017.88
2022-09-12T10:04:52.858Z,100015.66
2022-09-12T10:07:21.929Z,100015.56
2022-09-12T10:10:14.458Z,100019.34
2022-09-12T10:12:41.507Z,100014.25
2022-09-12T10:15:38.547Z,100013.97
2022-09-12T10:18:05.699Z,100012.38
2022-09-12T10:20:39.694Z,100020.38
2022-09-12T10:23:25.340Z,100012.38
2022-09-12T10:26:01.731Z,100020.88
2022-09-12T10:28:40.093Z,100022.13
2022-09-12T10:31:10.567Z,100014.06
2022-09-12T10:33:53.908Z,100006.66
2022-09-12T10:36:22.303Z,99995.03
2022-09-12T10:38:55.115Z,100001.31
2022-09-12T10:41:22.184Z,100004.88
2022-09-12T10:43:49.983Z,100006.00
2022-09-12T10:46:19.802Z,100010.00
2022-09-12T10:48:51.670Z,100016.84
2022-09-12T10:51:24.623Z,100026.78
2022-09-12T10:53:57.684Z,100015.09
2022-09-12T10:56:29.100Z,100023.47
2022-09-12T10:59:20.135Z,100009.97
2022-09-12T11:01:49.706Z,100013.88
2022-09-12T11:04:54.169Z,100009.44
2022-09-12T11:07:36.070Z,100015.56
2022-09-12T11:10:35.729Z,99999.41
2022-09-12T11:13:18.556Z,99992.88
2022-09-12T11:16:23.083Z,99994.63
2022-09-12T11:18:56.026Z,100000.06
2022-09-12T11:21:58.274Z,100008.13
2022-09-12T11:24:47.331Z,100003.88
2022-09-12T11:27:43.381Z,100000.00
2022-09-12T11:30:16.419Z,100007.78
2022-09-12T11:33:31.047Z,100001.84
2022-09-12T11:35:58.086Z,99997.00
2022-09-12T11:38:43.278Z,100001.44
2022-09-12T11:41:20.517Z,100005.16
2022-09-12T11:44:11.810Z,99992.06
2022-09-12T11:46:46.728Z,99996.44
2022-09-12T11:49:19.679Z,99982.00
2022-09-12T11:52:16.047Z,99986.16
2022-09-12T11:54:54.149Z,99993.16
2022-09-12T11:57:29.433Z,99994.19
2022-09-12T12:00:18.636Z,99988.00
2022-09-12T12:03:01.305Z,99985.66
2022-09-12T12:05:55.612Z,99992.34
2022-09-12T12:08:24.151Z,99989.53
2022-09-12T12:10:59.937Z,99987.44
2022-09-12T12:13:46.871Z,99996.34
2022-09-12T12:16:27.027Z,99985.03
2022-09-12T12:19:00.458Z,99988.84
2022-09-12T12:21:44.526Z,99984.06
2022-09-12T12:24:20.843Z,99972.16
2022-09-12T12:26:52.436Z,99980.31
2022-09-12T12:29:21.851Z,99976.69
2022-09-12T12:32:07.876Z,99987.53
2022-09-12T12:34:46.781Z,99969.50
2022-09-12T12:37:19.572Z,99978.13
2022-09-12T12:39:52.802Z,99982.41
2022-09-12T12:42:35.182Z,99984.94
2022-09-12T12:45:27.371Z,99980.72
2022-09-12T12:47:58.285Z,99976.13
2022-09-12T12:50:28.227Z,99990.09
2022-09-12T12:53:03.304Z,99991.31
2022-09-12T12:55:46.930Z,99991.88
2022-09-12T12:58:29.118Z,99990.34
2022-09-12T13:01:23.256Z,99996.31
2022-09-12T13:04:04.381Z,99994.00
2022-09-12T13:06:36.245Z,99989.84
2022-09-12T13:09:10.122Z,99991.63
2022-09-12T13:11:39.335Z,99992.41
2022-09-12T13:14:43.630Z,99997.31
2022-09-12T13:17:22.866Z,99992.31
2022-09-12T13:20:10.655Z,99992.28
2022-09-12T13:22:42.595Z,99995.28
2022-09-12T13:25:38.928Z,99991.94
2022-09-12T13:28:11.579Z,99983.94
2022-09-12T13:30:42.606Z,99991.16
2022-09-12T13:33:18.935Z,99984.94
2022-09-12T13:36:13.662Z,99995.28
2022-09-12T13:39:05.662Z,100000.16
2022-09-12T13:41:41.494Z,99997.56
2022-09-12T13:44:13.379Z,99999.16
2022-09-12T13:46:40.935Z,99997.28
2022-09-12T13:49:16.111Z,99997.97
2022-09-12T13:51:43.739Z,99992.91
2022-09-12T13:54:21.411Z,99999.53
2022-09-12T13:56:51.364Z,100001.31
2022-09-12T13:59:18.252Z,100005.09
2022-09-12T14:01:47.424Z,100000.22
2022-09-12T14:04:50.731Z,99999.88
2022-09-12T14:07:25.898Z,100002.78
2022-09-12T14:09:56.001Z,100001.50
2022-09-12T14:12:37.577Z,100007.53
2022-09-12T14:15:05.660Z,99996.16
2022-09-12T14:17:39.486Z,100009.22
2022-09-12T14:20:14.547Z,100010.69
2022-09-12T14:22:41.737Z,100006.72
2022-09-12T14:25:19.492Z,100006.50
2022-09-12T14:27:50.946Z,100002.44
2022-09-12T14:30:36.693Z,100015.75
2022-09-12T14:33:10.550Z,99999.50
2022-09-12T14:35:53.232Z,100002.59
2022-09-12T14:38:37.553Z,100012.50
2022-09-12T14:41:09.214Z,100011.38
2022-09-12T14:43:45.825Z,100019.25
2022-09-12T14:46:38.916Z,100014.47
2022-09-12T14:49:27.800Z,100017.47
2022-09-12T14:52:00.927Z,100014.84
2022-09-12T14:54:27.734Z,100014.41
2022-09-12T14:56:58.822Z,100013.44
2022-09-12T14:59:30.365Z,100015.81
2022-09-12T15:02:21.454Z,100008.94
2022-09-12T15:04:49.444Z,100011.34
2022-09-12T15:07:34.715Z,100009.88
2022-09-12T15:10:22.121Z,100012.66
2022-09-12T15:12:49.981Z,100006.56
2022-09-12T15:15:20.146Z,100011.09
2022-09-12T15:17:47.713Z,100008.97
2022-09-12T15:20:14.827Z,100002.78
2022-09-12T15:22:42.517Z,99999.19
2022-09-12T15:25:12.574Z,100003.94
2022-09-12T15:27:41.025Z,100002.38
2022-09-12T15:30:13.366Z,100003.81
2022-09-12T15:32:42.414Z,100003.03
2022-09-12T15:35:32.701Z,99993.53
2022-09-12T15:37:59.697Z,99995.00
2022-09-12T15:40:26.736Z,99997.44
2022-09-12T15:42:53.599Z,99989.41
2022-09-12T15:45:27.903Z,100000.16
2022-09-12T15:47:55.687Z,99994.84
2022-09-12T15:50:22.882Z,99999.03
2022-09-12T15:52:49.975Z,100000.25
2022-09-12T15:55:24.322Z,100000.63
2022-09-12T15:57:51.242Z,99993.38
2022-09-12T16:00:19.353Z,99994.16
2022-09-12T16:02:51.378Z,99996.28
2022-09-12T16:05:25.204Z,99992.31
2022-09-12T16:07:54.063Z,99993.69
2022-09-12T16:10:24.350Z,99993.59
2022-09-12T16:12:51.574Z,99999.53
2022-09-12T16:15:21.978Z,99996.69
2022-09-12T16:17:49.209Z,100003.13
2022-09-12T16:20:16.595Z,100007.53
2022-09-12T16:22:43.848Z,100013.84
2022-09-12T16:25:10.783Z,100013.34
2022-09-12T16:27:38.114Z,100012.81
2022-09-12T16:30:07.724Z,100013.91
2022-09-12T16:32:34.661Z,100010.97
2022-09-12T16:35:02.044Z,100013.00
2022-09-12T16:37:29.039Z,100021.13
2022-09-12T16:39:56.058Z,100023.09
2022-09-12T16:42:23.130Z,100016.72
2022-09-12T16:44:50.289Z,100024.31
2022-09-12T16:47:17.435Z,100027.06
2022-09-12T16:49:44.418Z,100022.28
2022-09-12T16:52:12.801Z,100024.69
2022-09-12T16:54:40.858Z,100035.03
2022-09-12T16:57:07.852Z,100031.38
2022-09-12T16:59:34.748Z,100039.44
2022-09-12T17:02:02.443Z,100033.03
2022-09-12T17:04:29.586Z,100033.94
2022-09-12T17:06:59.482Z,100035.78
2022-09-12T17:09:28.288Z,100033.91
2022-09-12T17:11:56.646Z,100041.97
2022-09-12T17:14:24.133Z,100041.75
2022-09-12T17:16:52.128Z,100041.84
2022-09-12T17:19:28.178Z,100040.56
2022-09-12T17:21:55.868Z,100041.72
2022-09-12T17:24:23.262Z,100040.13
2022-09-12T17:26:51.752Z,100040.53
2022-09-12T17:29:18.756Z,100044.69
2022-09-12T17:31:45.904Z,100040.44
2022-09-12T17:34:17.857Z,100045.31
2022-09-12T17:36:48.320Z,100037.69
2022-09-12T17:39:15.489Z,100036.56
2022-09-12T17:41:43.317Z,100035.53
2022-09-12T17:44:15.117Z,100040.75
2022-09-12T17:46:42.586Z,100043.84
2022-09-12T17:49:15.026Z,100052.47
2022-09-12T17:51:43.798Z,100073.69
2022-09-12T17:54:16.212Z,100067.31
2022-09-12T17:56:44.461Z,100061.50
2022-09-12T17:59:15.492Z,100065.06
2022-09-12T18:02:00.887Z,100060.41
2022-09-12T18:04:27.836Z,100065.78
2022-09-12T18:06:55.143Z,100069.88
2022-09-12T18:09:25.011Z,100080.97
2022-09-12T18:11:53.146Z,100076.63
2022-09-12T18:14:21.044Z,100079.72
2022-09-12T18:16:48.651Z,100080.78
2022-09-12T18:19:16.033Z,100084.84
2022-09-12T18:21:43.043Z,100086.81
2022-09-12T18:24:10.737Z,100088.84
2022-09-12T18:26:38.150Z,100108.94
2022-09-12T18:29:05.349Z,100102.56
2022-09-12T18:31:32.263Z,100106.97
2022-09-12T18:34:02.752Z,100113.78
2022-09-12T18:36:30.500Z,100109.50
2022-09-12T18:38:58.987Z,100109.22
2022-09-12T18:41:26.937Z,100108.16
2022-09-12T18:43:58.961Z,100105.09
2022-09-12T18:46:27.567Z,100107.94
2022-09-12T18:48:58.820Z,100095.59
2022-09-12T18:51:31.705Z,100091.09
2022-09-12T18:54:06.227Z,100085.34
2022-09-12T18:56:36.063Z,100082.06
2022-09-12T18:59:05.356Z,100086.31
2022-09-12T19:01:34.572Z,100077.03
2022-09-12T19:04:04.814Z,100084.84
2022-09-12T19:06:34.955Z,100079.47
2022-09-12T19:09:07.326Z,100080.72
2022-09-12T19:11:36.920Z,100087.75
2022-09-12T19:14:05.008Z,100099.34
2022-09-12T19:16:32.343Z,100100.63
2022-09-12T19:18:59.725Z,100103.97
2022-09-12T19:21:29.025Z,100104.44
2022-09-12T19:23:59.227Z,100103.94
2022-09-12T19:26:26.563Z,100106.84
2022-09-12T19:28:55.132Z,100100.44
2022-09-12T19:31:23.406Z,100097.59
2022-09-12T19:33:52.516Z,100098.41
2022-09-12T19:36:43.731Z,100107.84
2022-09-12T19:39:08.872Z,100113.66
2022-09-12T19:41:36.456Z,100111.16
2022-09-12T19:44:04.505Z,100117.78
2022-09-12T19:46:31.956Z,100114.69
2022-09-12T19:48:59.064Z,100118.56
2022-09-12T19:51:26.115Z,100117.78
2022-09-12T19:53:53.549Z,100114.75
2022-09-12T19:56:20.804Z,100124.09
2022-09-12T19:58:52.292Z,100128.50
2022-09-12T20:01:25.134Z,100129.19
2022-09-12T20:03:55.213Z,100140.78
2022-09-12T20:06:22.658Z,100138.88
2022-09-12T20:08:49.958Z,100142.72
2022-09-12T20:11:22.177Z,100140.59
2022-09-12T20:13:49.439Z,100143.97
2022-09-12T20:16:22.730Z,100140.72
2022-09-12T20:18:57.976Z,100150.50
2022-09-12T20:21:31.608Z,100150.56
2022-09-12T20:24:12.067Z,100154.41
2022-09-12T20:26:40.082Z,100144.44
2022-09-12T20:29:07.838Z,100147.13
2022-09-12T20:31:35.289Z,100145.03
2022-09-12T20:34:02.908Z,100148.16
2022-09-12T20:36:29.848Z,100138.25
2022-09-12T20:39:02.839Z,100146.19
2022-09-12T20:41:33.181Z,100147.28
2022-09-12T20:44:00.425Z,100155.84
2022-09-12T20:46:28.819Z,100150.69
2022-09-12T20:48:55.911Z,100149.03
2022-09-12T20:51:23.031Z,100142.81
2022-09-12T20:53:54.571Z,100145.31
2022-09-12T20:56:22.269Z,100145.22
2022-09-12T20:58:49.799Z,100150.25
2022-09-12T21:01:17.333Z,100150.38
2022-09-12T21:03:45.502Z,100155.44
2022-09-12T21:06:14.344Z,100152.28
2022-09-12T21:08:41.361Z,100149.53
2022-09-12T21:11:08.670Z,100150.63
2022-09-12T21:13:36.573Z,100151.72
2022-09-12T21:16:14.471Z,100141.25
2022-09-12T21:18:42.067Z,100127.03
2022-09-12T21:21:11.704Z,100128.94
2022-09-12T21:23:39.134Z,100121.78
2022-09-12T21:26:06.353Z,100130.41
2022-09-12T21:28:33.463Z,100131.66
2022-09-12T21:31:00.773Z,100137.41
2022-09-12T21:33:28.298Z,100124.91
2022-09-12T21:35:55.235Z,100126.31
2022-09-12T21:38:22.117Z,100133.88
2022-09-12T21:40:49.139Z,100133.31
2022-09-12T21:43:16.105Z,100131.34
2022-09-12T21:45:43.056Z,100121.78
2022-09-12T21:48:10.739Z,100125.06
2022-09-12T21:50:37.583Z,100123.78
2022-09-12T21:53:04.466Z,100122.53
2022-09-12T21:55:31.348Z,100115.00
2022-09-12T21:57:58.215Z,100115.38
2022-09-12T22:00:25.157Z,100118.44
2022-09-12T22:02:52.674Z,100127.25
2022-09-12T22:05:21.425Z,100116.03
2022-09-12T22:07:48.338Z,100118.16
2022-09-12T22:10:15.420Z,100119.13
2022-09-12T22:12:46.212Z,100115.63
2022-09-12T22:15:38.789Z,100118.63
2022-09-12T22:18:00.896Z,100117.22
2022-09-12T22:20:27.972Z,100113.91
2022-09-12T22:23:13.394Z,100118.00
2022-09-12T22:25:40.257Z,100118.06
2022-09-12T22:28:07.234Z,100130.13
2022-09-12T22:30:34.146Z,100125.53
2022-09-12T22:33:01.168Z,100123.53
2022-09-12T22:35:28.012Z,100113.91
2022-09-12T22:37:54.911Z,100125.56
2022-09-12T22:40:21.980Z,100120.00
2022-09-12T22:42:52.405Z,100121.78
2022-09-12T22:45:20.043Z,100129.13
2022-09-12T22:47:47.007Z,100125.59
2022-09-12T22:50:14.347Z,100126.34
2022-09-12T22:52:41.768Z,100124.56
2022-09-12T22:55:09.260Z,100132.38
2022-09-12T22:57:36.314Z,100140.47
2022-09-12T23:00:08.119Z,100136.16
2022-09-12T23:02:35.077Z,100129.22
2022-09-12T23:05:02.712Z,100140.66
2022-09-12T23:07:29.654Z,100144.56
2022-09-12T23:09:56.606Z,100139.97
2022-09-12T23:12:23.575Z,100145.31
2022-09-12T23:14:50.467Z,100151.63
2022-09-12T23:17:17.382Z,100142.44
2022-09-12T23:19:44.365Z,100144.06
2022-09-12T23:22:11.251Z,100138.94
2022-09-12T23:24:38.470Z,100131.72
2022-09-12T23:27:06.105Z,100127.06
2022-09-12T23:29:35.461Z,100134.13
2022-09-12T23:32:04.337Z,100135.47
2022-09-12T23:34:31.243Z,100123.81
2022-09-12T23:36:58.121Z,100120.53
2022-09-12T23:39:25.083Z,100121.94
2022-09-12T23:41:52.282Z,100133.16
2022-09-12T23:44:19.237Z,100136.69
2022-09-12T23:46:46.122Z,100134.69
2022-09-12T23:49:13.047Z,100139.34
2022-09-12T23:51:39.910Z,100143.69
2022-09-12T23:54:06.861Z,100156.06
2022-09-12T23:56:33.787Z,100158.44
2022-09-12T23:59:00.737Z,100165.53
